Time;durP1;ratioP1;P1;durP2;ratioP2;P2;SDS_P1;SDS_P2;PMS_P1;PMS_P2;Temp;Humidity;BMP_temperature;BMP_pressure;BME280_temperature;BME280_humidity;BME280_pressure;Samples;Min_cycle;Max_cycle;Signal;HPM_P1;HPM_P2
2023/05/31 00:01:41;;;;;;;22.88;17.02;;;10.90;99.90;;;;;;5076141;28;20441;-67
2023/05/31 00:04:08;;;;;;;23.42;15.85;;;10.80;99.90;;;;;;5076108;28;20032;-67
2023/05/31 00:06:33;;;;;;;22.38;16.23;;;10.80;99.90;;;;;;5076215;28;20120;-66
2023/05/31 00:08:59;;;;;;;23.58;17.33;;;10.70;99.90;;;;;;5075935;28;20458;-67
2023/05/31 00:11:26;;;;;;;23.17;16.05;;;10.70;99.90;;;;;;5075950;28;20108;-67
2023/05/31 00:13:52;;;;;;;22.98;17.02;;;10.80;99.90;;;;;;5076191;28;20540;-67
2023/05/31 00:16:18;;;;;;;22.08;17.05;;;10.80;99.90;;;;;;5075797;28;20107;-67
2023/05/31 00:18:44;;;;;;;25.52;16.35;;;10.90;99.90;;;;;;5075783;28;20167;-67
2023/05/31 00:21:09;;;;;;;20.55;16.02;;;10.90;99.90;;;;;;5075573;28;20056;-67
2023/05/31 00:23:35;;;;;;;23.67;16.75;;;10.90;99.90;;;;;;5075600;28;20032;-67
2023/05/31 00:26:00;;;;;;;23.42;16.60;;;10.90;99.90;;;;;;5075768;28;20530;-67
2023/05/31 00:28:26;;;;;;;23.35;16.67;;;10.90;99.90;;;;;;5075752;28;20033;-66
2023/05/31 00:30:52;;;;;;;23.60;16.42;;;10.90;99.90;;;;;;5075629;28;20025;-67
2023/05/31 00:33:17;;;;;;;23.05;16.30;;;11.00;99.90;;;;;;5075664;28;20131;-66
2023/05/31 00:35:43;;;;;;;22.27;15.50;;;11.10;99.90;;;;;;5075744;28;20033;-66
2023/05/31 00:38:08;;;;;;;21.23;15.98;;;11.10;99.90;;;;;;5075692;28;20501;-66
2023/05/31 00:40:34;;;;;;;21.75;14.52;;;11.10;99.90;;;;;;5075495;28;20032;-67
2023/05/31 00:43:00;;;;;;;21.40;15.93;;;11.10;99.90;;;;;;5075382;28;20067;-66
2023/05/31 00:45:25;;;;;;;20.25;14.63;;;11.20;99.90;;;;;;5075294;28;20032;-66
2023/05/31 00:47:51;;;;;;;21.88;14.38;;;11.20;99.90;;;;;;5075244;28;20497;-66
2023/05/31 00:50:17;;;;;;;22.33;15.80;;;11.20;99.90;;;;;;5074991;28;20047;-66
2023/05/31 00:52:47;;;;;;;19.23;14.35;;;11.30;99.90;;;;;;5075158;28;20021;-66
2023/05/31 00:55:13;;;;;;;19.35;14.75;;;11.40;99.90;;;;;;5075303;28;20432;-66
2023/05/31 00:57:39;;;;;;;21.98;14.32;;;11.40;99.90;;;;;;5075095;28;20028;-66
2023/05/31 01:00:07;;;;;;;21.55;14.35;;;11.50;99.90;;;;;;5075069;28;20024;-66
2023/05/31 01:02:34;;;;;;;22.10;14.82;;;11.50;99.90;;;;;;5075161;28;20398;-66
2023/05/31 01:05:01;;;;;;;24.35;14.70;;;11.50;99.90;;;;;;5075010;28;20390;-66
2023/05/31 01:07:26;;;;;;;20.20;14.70;;;11.50;99.90;;;;;;5075115;28;20028;-67
2023/05/31 01:09:53;;;;;;;20.45;14.38;;;11.50;99.90;;;;;;5074765;28;20078;-66
2023/05/31 01:12:58;;;;;;;18.80;13.82;;;11.50;99.90;;;;;;5074791;28;20024;-67
2023/05/31 01:15:31;;;;;;;24.30;14.57;;;11.50;99.90;;;;;;5074556;28;20478;-66
2023/05/31 01:18:09;;;;;;;24.10;14.73;;;11.50;99.90;;;;;;5074829;28;20065;-66
2023/05/31 01:20:37;;;;;;;22.73;14.23;;;11.50;99.90;;;;;;5073647;28;20111;-66
2023/05/31 01:23:34;;;;;;;19.60;14.00;;;11.50;99.90;;;;;;5074563;28;20086;-66
2023/05/31 01:26:40;;;;;;;21.67;14.25;;;11.50;99.90;;;;;;5074397;28;20028;-66
2023/05/31 01:29:10;;;;;;;22.30;14.45;;;11.40;99.90;;;;;;5074440;28;20032;-67
2023/05/31 01:31:39;;;;;;;21.58;14.30;;;11.40;99.90;;;;;;5074479;28;20111;-66
2023/05/31 01:34:06;;;;;;;19.95;14.13;;;11.40;99.90;;;;;;5074405;28;20035;-67
2023/05/31 01:36:32;;;;;;;20.08;14.13;;;11.40;99.90;;;;;;5073169;28;20482;-66
2023/05/31 01:38:58;;;;;;;19.92;13.68;;;11.40;99.90;;;;;;5074322;28;20024;-67
2023/05/31 01:41:26;;;;;;;20.85;14.23;;;11.40;99.90;;;;;;5074265;28;20017;-66
2023/05/31 01:43:52;;;;;;;20.10;13.55;;;11.40;99.90;;;;;;5074088;28;20436;-67
2023/05/31 01:46:19;;;;;;;21.35;14.25;;;11.40;99.90;;;;;;5074106;28;20470;-66
2023/05/31 01:48:45;;;;;;;22.88;14.40;;;11.40;99.90;;;;;;5073861;28;20106;-66
2023/05/31 01:51:13;;;;;;;21.63;14.38;;;11.40;99.90;;;;;;5073948;28;20067;-67
2023/05/31 01:53:38;;;;;;;19.40;14.90;;;11.30;99.90;;;;;;5074204;28;20513;-66
2023/05/31 01:56:07;;;;;;;20.13;14.93;;;11.30;99.90;;;;;;5073947;28;20025;-67
2023/05/31 01:58:36;;;;;;;21.88;15.63;;;11.30;99.90;;;;;;5074108;28;20028;-67
2023/05/31 02:01:01;;;;;;;23.02;14.52;;;11.20;99.90;;;;;;5073866;28;20038;-66
2023/05/31 02:03:27;;;;;;;24.25;16.00;;;11.20;99.90;;;;;;5073974;28;20032;-66
2023/05/31 02:05:56;;;;;;;23.70;15.93;;;11.20;99.90;;;;;;5074035;28;20029;-67
2023/05/31 02:08:23;;;;;;;24.10;15.38;;;11.20;99.90;;;;;;5073697;28;20486;-66
2023/05/31 02:10:49;;;;;;;22.42;14.88;;;11.10;99.90;;;;;;5073553;28;20493;-67
2023/05/31 02:13:14;;;;;;;28.08;16.67;;;11.10;99.90;;;;;;5073626;28;20029;-66
2023/05/31 02:15:41;;;;;;;21.92;15.43;;;11.10;99.90;;;;;;5072450;28;20027;-66
2023/05/31 02:18:07;;;;;;;26.17;16.67;;;11.10;99.90;;;;;;5073609;28;20023;-66
2023/05/31 02:20:34;;;;;;;22.73;16.08;;;11.10;99.90;;;;;;5071951;28;20154;-66
2023/05/31 02:22:59;;;;;;;26.25;16.38;;;11.10;99.90;;;;;;5073283;28;20486;-66
2023/05/31 02:25:25;;;;;;;25.38;16.08;;;11.00;99.90;;;;;;5073448;28;20109;-67
2023/05/31 02:27:50;;;;;;;24.50;15.68;;;11.00;99.90;;;;;;5073344;28;20067;-67
2023/05/31 02:30:16;;;;;;;25.95;15.98;;;11.00;99.90;;;;;;5073405;28;20027;-66
2023/05/31 02:32:42;;;;;;;27.00;15.77;;;11.00;99.90;;;;;;5073583;28;20025;-66
2023/05/31 02:35:09;;;;;;;24.45;15.18;;;11.00;99.90;;;;;;5073400;28;20382;-66
2023/05/31 02:37:37;;;;;;;25.98;16.48;;;10.90;99.90;;;;;;5072354;28;20025;-67
2023/05/31 02:40:11;;;;;;;27.30;15.95;;;10.90;99.90;;;;;;5072330;28;20020;-67
2023/05/31 02:42:39;;;;;;;22.25;15.57;;;10.80;99.90;;;;;;5073368;28;20070;-67
2023/05/31 02:45:06;;;;;;;23.67;15.00;;;10.70;99.90;;;;;;5073540;28;20402;-66
2023/05/31 02:47:32;;;;;;;22.55;15.05;;;10.60;99.90;;;;;;5073245;28;20530;-67
2023/05/31 02:49:58;;;;;;;24.80;16.15;;;10.50;99.90;;;;;;5073090;28;20133;-67
2023/05/31 02:52:24;;;;;;;29.42;17.55;;;10.40;99.90;;;;;;5073508;28;20108;-67
2023/05/31 02:54:50;;;;;;;28.48;17.73;;;10.30;99.90;;;;;;5073134;28;20478;-67
2023/05/31 02:57:16;;;;;;;28.48;17.67;;;10.30;99.90;;;;;;5072867;28;20052;-67
2023/05/31 02:59:45;;;;;;;28.10;17.27;;;10.30;99.90;;;;;;5073126;28;20064;-67
2023/05/31 03:02:11;;;;;;;29.48;18.42;;;10.40;99.90;;;;;;5071938;28;20029;-66
2023/05/31 03:04:36;;;;;;;33.25;18.40;;;10.40;99.90;;;;;;5073289;28;20478;-67
2023/05/31 03:07:02;;;;;;;27.63;18.45;;;10.40;99.90;;;;;;5073103;28;20107;-67
2023/05/31 03:09:28;;;;;;;33.97;19.35;;;10.40;99.90;;;;;;5073067;28;20424;-66
2023/05/31 03:11:54;;;;;;;29.60;19.25;;;10.40;99.90;;;;;;5073346;28;20027;-67
2023/05/31 03:14:19;;;;;;;34.45;19.02;;;10.40;99.90;;;;;;5072987;28;20025;-67
2023/05/31 03:16:45;;;;;;;31.98;19.10;;;10.40;99.90;;;;;;5072909;28;20024;-66
2023/05/31 03:19:12;;;;;;;29.67;18.55;;;10.40;99.90;;;;;;5073139;28;20028;-67
2023/05/31 03:21:38;;;;;;;30.92;19.42;;;10.40;99.90;;;;;;5072934;28;20028;-67
2023/05/31 03:24:04;;;;;;;29.45;19.17;;;10.40;99.90;;;;;;5073070;28;20025;-66
2023/05/31 03:26:29;;;;;;;33.28;19.80;;;10.40;99.90;;;;;;5073158;28;20413;-67
2023/05/31 03:28:55;;;;;;;35.72;20.20;;;10.40;99.90;;;;;;5072922;28;20025;-67
2023/05/31 03:31:20;;;;;;;36.50;19.77;;;10.40;99.90;;;;;;5072806;28;20067;-67
2023/05/31 03:33:46;;;;;;;31.30;19.08;;;10.40;99.90;;;;;;5076651;28;20024;-66
2023/05/31 03:36:11;;;;;;;27.88;17.63;;;10.40;99.90;;;;;;5076635;28;20074;-66
2023/05/31 03:38:37;;;;;;;31.80;18.20;;;10.40;99.90;;;;;;5076527;28;20446;-66
2023/05/31 03:41:03;;;;;;;30.00;18.58;;;10.40;99.90;;;;;;5076553;28;20397;-67
2023/05/31 03:43:28;;;;;;;32.22;18.88;;;10.30;99.90;;;;;;5076558;28;20466;-66
2023/05/31 03:45:54;;;;;;;28.67;18.38;;;10.30;99.90;;;;;;5076337;28;20032;-66
2023/05/31 03:48:19;;;;;;;25.63;16.88;;;10.30;99.90;;;;;;5076318;28;20050;-66
2023/05/31 03:50:45;;;;;;;29.00;18.08;;;10.30;99.90;;;;;;5076074;28;20055;-66
2023/05/31 03:53:10;;;;;;;26.92;16.92;;;10.30;99.90;;;;;;5076376;28;20035;-67
2023/05/31 03:55:36;;;;;;;33.03;17.88;;;10.30;99.90;;;;;;5076293;28;20016;-66
2023/05/31 03:58:02;;;;;;;27.77;17.58;;;10.30;99.90;;;;;;5076480;28;20074;-67
2023/05/31 04:00:28;;;;;;;26.58;17.45;;;10.30;99.90;;;;;;5076175;28;20133;-67
2023/05/31 04:02:54;;;;;;;29.08;17.48;;;10.30;99.90;;;;;;5076291;28;20039;-67
2023/05/31 04:05:19;;;;;;;33.38;18.83;;;10.40;99.90;;;;;;5076090;28;20441;-67
2023/05/31 04:07:45;;;;;;;25.05;17.80;;;10.40;99.90;;;;;;5075872;28;20051;-67
2023/05/31 04:10:11;;;;;;;27.52;17.15;;;10.50;99.90;;;;;;5076033;28;20131;-66
2023/05/31 04:12:36;;;;;;;28.67;18.75;;;10.50;99.90;;;;;;5075901;28;20021;-66
2023/05/31 04:15:02;;;;;;;33.75;19.55;;;10.50;99.90;;;;;;5075924;28;20442;-67
2023/05/31 04:17:28;;;;;;;33.28;19.60;;;10.50;99.90;;;;;;5075967;28;20024;-67
2023/05/31 04:19:53;;;;;;;31.20;19.38;;;10.60;99.90;;;;;;5075758;28;20493;-66
2023/05/31 04:22:20;;;;;;;31.17;20.00;;;10.70;99.90;;;;;;5075707;28;20028;-66
2023/05/31 04:24:46;;;;;;;31.83;19.10;;;10.70;99.90;;;;;;5075847;28;20035;-66
2023/05/31 04:27:18;;;;;;;26.95;19.10;;;10.80;99.90;;;;;;5075659;28;20033;-67
2023/05/31 04:29:45;;;;;;;31.38;19.45;;;11.00;99.90;;;;;;5075556;28;20124;-67
2023/05/31 04:32:14;;;;;;;30.23;19.42;;;11.30;99.90;;;;;;5075823;28;20394;-67
2023/05/31 04:34:40;;;;;;;27.75;18.10;;;11.50;99.90;;;;;;5075523;28;20021;-67
2023/05/31 04:37:07;;;;;;;23.90;15.60;;;12.20;99.90;;;;;;5075538;28;20017;-67
2023/05/31 04:39:32;;;;;;;19.42;14.38;;;13.60;99.90;;;;;;5075505;28;20471;-68
2023/05/31 04:41:59;;;;;;;22.13;13.65;;;15.00;1.00;;;;;;5075456;28;20028;-68
2023/05/31 04:44:24;;;;;;;19.95;13.50;;;16.10;1.00;;;;;;5074983;28;20047;-68
2023/05/31 04:46:50;;;;;;;18.65;12.40;;;16.70;99.90;;;;;;5075577;28;20028;-68
2023/05/31 04:49:16;;;;;;;18.92;12.18;;;17.40;15.60;;;;;;5074999;28;20094;-67
2023/05/31 04:51:42;;;;;;;18.20;12.25;;;17.70;1.00;;;;;;5074058;28;20036;-68
2023/05/31 04:54:08;;;;;;;14.02;11.57;;;17.70;99.90;;;;;;5075275;28;20024;-68
2023/05/31 04:56:33;;;;;;;18.05;11.60;;;17.70;1.00;;;;;;5075401;28;20431;-68
2023/05/31 04:58:59;;;;;;;15.70;12.30;;;17.50;1.00;;;;;;5075186;28;20056;-68
2023/05/31 05:01:25;;;;;;;16.50;11.90;;;17.70;99.90;;;;;;5075234;28;20025;-66
2023/05/31 05:03:52;;;;;;;12.85;11.05;;;17.90;1.00;;;;;;5075011;28;20028;-66
2023/05/31 05:06:18;;;;;;;15.23;11.48;;;18.50;1.00;;;;;;5074911;28;20531;-65
2023/05/31 05:08:44;;;;;;;15.43;11.50;;;18.20;1.00;;;;;;5074911;28;20103;-65
2023/05/31 05:11:11;;;;;;;13.10;11.10;;;17.50;99.90;;;;;;5074808;28;20024;-66
2023/05/31 05:13:36;;;;;;;14.10;11.90;;;17.30;1.00;;;;;;5074819;28;20530;-65
2023/05/31 05:16:02;;;;;;;15.70;12.10;;;17.00;1.00;;;;;;5074635;28;20131;-66
2023/05/31 05:18:29;;;;;;;14.50;11.65;;;17.10;99.90;;;;;;5075019;28;20474;-66
2023/05/31 05:20:54;;;;;;;16.20;12.70;;;16.80;99.90;;;;;;5074559;28;20439;-67
2023/05/31 05:23:21;;;;;;;17.38;11.50;;;17.40;99.90;;;;;;5074525;28;20141;-67
2023/05/31 05:25:46;;;;;;;13.75;10.90;;;18.60;1.00;;;;;;5074378;28;20028;-68
2023/05/31 05:28:11;;;;;;;14.00;11.15;;;19.00;99.90;;;;;;5074445;28;20447;-68
2023/05/31 05:30:38;;;;;;;15.10;10.70;;;19.00;99.90;;;;;;5074400;28;20032;-67
2023/05/31 05:33:04;;;;;;;15.85;10.60;;;18.70;99.90;;;;;;5073227;28;20440;-68
2023/05/31 05:35:30;;;;;;;16.27;10.20;;;19.90;23.90;;;;;;5074458;28;20044;-67
2023/05/31 05:37:57;;;;;;;14.73;10.60;;;20.60;1.00;;;;;;5074181;28;20048;-68
2023/05/31 05:40:23;;;;;;;13.65;9.77;;;20.70;99.90;;;;;;5074119;28;20029;-68
2023/05/31 05:42:48;;;;;;;11.40;10.15;;;21.60;99.90;;;;;;5074331;28;20051;-68
2023/05/31 05:45:15;;;;;;;11.65;10.10;;;22.20;59.00;;;;;;5074308;28;20024;-68
2023/05/31 05:47:40;;;;;;;14.57;10.48;;;21.30;99.90;;;;;;5074099;28;20108;-68
2023/05/31 05:50:07;;;;;;;15.23;10.57;;;20.80;99.90;;;;;;5073892;28;20124;-67
2023/05/31 05:52:32;;;;;;;12.57;10.80;;;20.30;99.90;;;;;;5054117;28;20029;-68
2023/05/31 05:54:58;;;;;;;17.58;10.32;;;21.10;99.90;;;;;;5053422;28;20029;-68
2023/05/31 05:57:25;;;;;;;13.07;10.52;;;21.60;99.90;;;;;;5053890;28;20441;-68
2023/05/31 05:59:50;;;;;;;13.20;10.57;;;22.40;99.90;;;;;;5054094;28;20110;-68
2023/05/31 06:02:16;;;;;;;12.48;9.98;;;23.00;99.90;;;;;;5052275;28;20053;-68
2023/05/31 06:04:42;;;;;;;15.07;10.55;;;22.60;99.90;;;;;;5049245;28;20402;-68
2023/05/31 06:07:07;;;;;;;16.65;10.50;;;22.10;99.90;;;;;;5058672;28;20036;-68
2023/05/31 06:09:33;;;;;;;15.35;9.90;;;22.00;1.00;;;;;;5053276;28;20540;-68
2023/05/31 06:11:58;;;;;;;11.98;10.50;;;22.20;1.00;;;;;;5053679;28;20036;-66
2023/05/31 06:14:24;;;;;;;13.88;10.45;;;22.20;1.00;;;;;;5045048;28;20040;-66
2023/05/31 06:16:49;;;;;;;13.48;10.65;;;22.20;1.00;;;;;;5053354;28;20021;-65
2023/05/31 06:19:15;;;;;;;13.38;11.07;;;22.60;1.00;;;;;;5053420;28;20100;-66
2023/05/31 06:21:41;;;;;;;14.07;10.90;;;22.40;99.90;;;;;;5051905;28;20029;-68
2023/05/31 06:24:06;;;;;;;13.77;10.23;;;23.00;1.00;;;;;;5036107;28;20426;-66
2023/05/31 06:26:35;;;;;;;18.45;10.82;;;23.80;89.60;;;;;;5054221;28;20058;-67
2023/05/31 06:29:01;;;;;;;14.68;9.45;;;24.80;99.90;;;;;;5041215;28;20071;-66
2023/05/31 06:31:27;;;;;;;15.25;10.48;;;24.40;99.90;;;;;;5057797;28;20037;-66
2023/05/31 06:33:53;;;;;;;14.88;9.63;;;24.20;1.00;;;;;;5045324;28;20025;-68
2023/05/31 06:36:18;;;;;;;14.10;9.85;;;24.50;99.90;;;;;;5047495;28;20021;-67
2023/05/31 06:38:46;;;;;;;15.45;10.15;;;24.20;1.00;;;;;;5056595;28;20032;-68
2023/05/31 06:41:11;;;;;;;15.52;9.50;;;24.50;1.00;;;;;;5070771;28;20021;-68
2023/05/31 06:43:37;;;;;;;11.35;9.45;;;24.60;99.90;;;;;;5059527;28;20156;-68
2023/05/31 06:46:02;;;;;;;13.35;9.32;;;24.70;1.00;;;;;;5055022;28;20032;-68
2023/05/31 06:48:28;;;;;;;13.27;9.88;;;24.90;81.10;;;;;;5059409;28;20036;-67
2023/05/31 06:50:53;;;;;;;13.70;9.05;;;24.10;2.20;;;;;;5059044;28;20060;-67
2023/05/31 06:53:19;;;;;;;14.48;9.88;;;23.80;99.90;;;;;;5051494;28;20029;-65
2023/05/31 06:55:45;;;;;;;14.70;9.30;;;24.20;1.00;;;;;;5053927;28;20471;-65
2023/05/31 06:58:10;;;;;;;14.52;9.70;;;25.30;99.90;;;;;;5054188;28;20174;-66
2023/05/31 07:00:36;;;;;;;11.57;8.27;;;25.80;99.90;;;;;;5054807;28;20056;-66
2023/05/31 07:03:01;;;;;;;10.75;8.30;;;26.00;99.90;;;;;;5036482;28;20486;-67
2023/05/31 07:05:29;;;;;;;10.95;8.95;;;25.20;82.30;;;;;;5069252;28;20056;-66
2023/05/31 07:07:54;;;;;;;17.27;10.05;;;25.70;99.90;;;;;;5067315;28;20028;-66
2023/05/31 07:10:20;;;;;;;18.70;9.00;;;26.10;99.90;;;;;;5075330;28;20059;-66
2023/05/31 07:12:46;;;;;;;10.50;8.57;;;26.00;99.90;;;;;;5060002;28;20382;-66
2023/05/31 07:15:11;;;;;;;12.65;8.38;;;27.30;99.90;;;;;;5043393;28;20021;-66
2023/05/31 07:17:37;;;;;;;16.90;9.00;;;26.70;1.00;;;;;;5056654;28;20121;-67
2023/05/31 07:20:05;;;;;;;13.68;8.65;;;26.60;99.90;;;;;;5069549;28;20107;-65
2023/05/31 07:22:30;;;;;;;12.68;8.60;;;26.20;99.90;;;;;;5055290;28;20079;-65
2023/05/31 07:24:57;;;;;;;11.15;7.85;;;25.60;1.00;;;;;;5069642;28;20029;-64
2023/05/31 07:27:22;;;;;;;12.40;9.07;;;26.30;47.40;;;;;;5060285;28;20067;-65
2023/05/31 07:29:48;;;;;;;15.98;8.75;;;27.30;99.90;;;;;;5053413;28;20037;-65
2023/05/31 07:32:14;;;;;;;11.90;7.55;;;27.30;99.90;;;;;;5061786;28;20029;-64
2023/05/31 07:34:39;;;;;;;11.90;8.13;;;26.60;99.90;;;;;;5054906;28;20029;-64
2023/05/31 07:37:05;;;;;;;15.80;7.82;;;27.90;99.90;;;;;;5061733;28;20028;-65
2023/05/31 07:39:31;;;;;;;10.50;8.27;;;28.50;99.90;;;;;;5057454;28;20478;-65
2023/05/31 07:41:58;;;;;;;13.68;8.10;;;28.40;1.00;;;;;;5069270;28;20028;-65
2023/05/31 07:44:25;;;;;;;12.57;8.05;;;28.80;1.00;;;;;;5060916;28;20064;-65
2023/05/31 07:46:50;;;;;;;13.70;7.10;;;28.10;1.00;;;;;;5056090;28;20036;-66
2023/05/31 07:49:16;;;;;;;10.23;7.07;;;26.80;1.00;;;;;;5060026;28;20049;-65
2023/05/31 07:51:41;;;;;;;10.68;7.82;;;26.80;99.90;;;;;;5050187;28;20029;-65
2023/05/31 07:54:07;;;;;;;12.60;7.57;;;27.40;8.80;;;;;;5041436;28;20037;-65
2023/05/31 07:56:33;;;;;;;12.88;7.38;;;27.70;1.00;;;;;;5054398;28;20021;-65
2023/05/31 07:58:58;;;;;;;13.63;7.85;;;28.00;1.00;;;;;;5055177;28;20025;-65
2023/05/31 08:01:24;;;;;;;12.10;7.32;;;27.80;99.90;;;;;;5069790;28;20021;-65
2023/05/31 08:03:50;;;;;;;12.88;7.50;;;28.80;99.90;;;;;;5051871;28;20025;-65
2023/05/31 08:06:16;;;;;;;12.27;6.80;;;28.70;1.00;;;;;;5062142;28;20115;-66
2023/05/31 08:08:42;;;;;;;9.60;6.38;;;29.50;27.60;;;;;;5061841;28;20587;-65
2023/05/31 08:11:08;;;;;;;11.48;6.63;;;28.90;1.00;;;;;;5054904;28;20029;-65
2023/05/31 08:13:34;;;;;;;11.05;6.80;;;27.00;1.00;;;;;;5055749;28;20025;-65
2023/05/31 08:15:59;;;;;;;10.02;6.00;;;27.40;99.90;;;;;;5062966;28;20394;-66
2023/05/31 08:18:25;;;;;;;14.48;6.68;;;27.20;99.90;;;;;;5050180;28;20021;-65
2023/05/31 08:20:50;;;;;;;11.98;7.32;;;26.40;99.90;;;;;;5045024;28;20029;-65
2023/05/31 08:23:17;;;;;;;8.10;5.70;;;27.30;6.70;;;;;;5049687;28;20025;-66
2023/05/31 08:25:43;;;;;;;9.95;5.22;;;27.30;1.00;;;;;;5057851;28;20033;-64
2023/05/31 08:28:08;;;;;;;12.00;5.13;;;27.50;99.90;;;;;;5053935;28;20100;-67
2023/05/31 08:30:34;;;;;;;7.90;4.88;;;28.00;99.90;;;;;;5055255;28;20044;-67
2023/05/31 08:33:00;;;;;;;9.10;4.53;;;29.20;99.90;;;;;;5062703;28;20482;-66
2023/05/31 08:35:25;;;;;;;8.68;5.00;;;29.90;1.00;;;;;;5072909;28;20021;-66
2023/05/31 08:37:51;;;;;;;14.23;5.15;;;30.10;1.00;;;;;;5060884;28;20036;-66
2023/05/31 08:40:17;;;;;;;10.30;4.40;;;30.20;99.90;;;;;;5057737;28;20116;-66
2023/05/31 08:42:55;;;;;;;7.72;4.47;;;30.20;1.00;;;;;;5058984;28;20111;-66
2023/05/31 08:45:20;;;;;;;9.55;4.88;;;30.80;1.00;;;;;;5058204;28;20048;-66
2023/05/31 08:47:57;;;;;;;10.68;5.38;;;30.70;1.00;;;;;;5074411;28;20029;-66
2023/05/31 08:50:26;;;;;;;9.88;5.15;;;29.30;99.90;;;;;;5060623;28;20447;-65
2023/05/31 08:52:52;;;;;;;9.68;5.07;;;28.20;99.90;;;;;;5056368;28;20036;-65
2023/05/31 08:55:18;;;;;;;9.07;4.95;;;29.00;1.00;;;;;;5055887;28;20027;-65
2023/05/31 08:57:45;;;;;;;9.57;4.25;;;28.90;1.00;;;;;;5056110;28;20027;-66
2023/05/31 09:00:11;;;;;;;10.98;4.80;;;29.20;99.90;;;;;;5060319;28;20033;-65
2023/05/31 09:02:38;;;;;;;7.85;4.13;;;29.00;99.90;;;;;;5067854;28;20032;-65
2023/05/31 09:05:04;;;;;;;8.27;4.15;;;29.20;1.00;;;;;;5064897;28;20112;-65
2023/05/31 09:07:30;;;;;;;7.45;4.30;;;29.40;1.00;;;;;;5057368;28;20440;-65
2023/05/31 09:09:56;;;;;;;8.77;4.30;;;28.70;99.90;;;;;;5064346;28;20028;-65
2023/05/31 09:12:21;;;;;;;5.68;3.63;;;29.30;1.00;;;;;;5052564;28;20053;-65
2023/05/31 09:14:47;;;;;;;7.85;4.13;;;29.00;99.90;;;;;;5061958;28;20081;-66
2023/05/31 09:17:13;;;;;;;6.90;3.85;;;29.90;99.90;;;;;;5063899;28;20029;-65
2023/05/31 09:19:41;;;;;;;8.40;3.80;;;29.50;1.00;;;;;;5056749;28;20044;-66
2023/05/31 09:22:07;;;;;;;7.70;3.85;;;29.20;73.20;;;;;;5059036;28;20363;-67
2023/05/31 09:24:32;;;;;;;7.57;3.40;;;29.40;77.10;;;;;;5058739;28;20162;-66
2023/05/31 09:27:00;;;;;;;8.13;3.63;;;29.20;99.90;;;;;;5071887;28;20036;-66
2023/05/31 09:29:26;;;;;;;7.57;3.83;;;29.40;99.90;;;;;;5061484;28;20032;-66
2023/05/31 09:32:08;;;;;;;10.13;3.50;;;30.00;1.00;;;;;;5060817;28;20056;-66
2023/05/31 09:34:33;;;;;;;8.52;3.60;;;30.20;99.90;;;;;;5055759;28;20486;-66
2023/05/31 09:36:59;;;;;;;7.97;2.78;;;30.10;99.90;;;;;;5048938;28;20102;-65
2023/05/31 09:39:25;;;;;;;7.32;3.45;;;28.90;99.90;;;;;;5065613;28;20052;-65
2023/05/31 09:41:51;;;;;;;6.82;3.28;;;28.90;99.90;;;;;;5055902;28;20106;-65
2023/05/31 09:44:17;;;;;;;7.22;3.30;;;29.00;99.90;;;;;;5061328;28;20489;-65
2023/05/31 09:46:46;;;;;;;5.40;3.22;;;29.20;99.90;;;;;;5055463;28;20115;-65
2023/05/31 09:49:12;;;;;;;9.40;3.58;;;30.10;99.90;;;;;;5046277;28;20037;-67
2023/05/31 09:51:38;;;;;;;7.63;3.72;;;30.30;99.90;;;;;;5047314;28;20413;-66
2023/05/31 09:54:11;;;;;;;7.82;3.35;;;30.40;99.90;;;;;;5047449;28;20060;-65
2023/05/31 09:56:38;;;;;;;7.07;3.67;;;29.50;99.90;;;;;;5045933;28;20060;-66
2023/05/31 09:59:04;;;;;;;8.30;3.70;;;29.40;1.00;;;;;;5062638;28;20436;-66
2023/05/31 10:01:31;;;;;;;10.40;3.90;;;29.20;99.90;;;;;;5057105;28;20158;-66
2023/05/31 10:03:59;;;;;;;5.00;3.50;;;29.20;99.90;;;;;;5051102;28;20402;-66
2023/05/31 10:06:24;;;;;;;6.65;3.40;;;29.70;99.90;;;;;;5047874;28;20028;-66
2023/05/31 10:08:50;;;;;;;7.65;3.20;;;29.30;5.60;;;;;;5039756;28;20069;-66
2023/05/31 10:11:21;;;;;;;7.13;3.33;;;29.60;31.50;;;;;;5053020;28;20107;-66
2023/05/31 10:13:50;;;;;;;8.07;3.33;;;29.30;1.00;;;;;;5050749;28;20108;-66
2023/05/31 10:16:17;;;;;;;7.10;3.33;;;29.00;99.90;;;;;;5055348;28;20422;-66
2023/05/31 10:18:45;;;;;;;6.20;3.20;;;28.60;1.00;;;;;;5056413;28;20507;-65
2023/05/31 10:21:23;;;;;;;7.35;3.13;;;28.70;99.90;;;;;;5046223;28;20078;-66
2023/05/31 10:24:05;;;;;;;7.50;3.15;;;29.30;99.90;;;;;;5046966;28;20025;-65
2023/05/31 10:26:58;;;;;;;6.47;3.33;;;28.90;99.90;;;;;;5049014;28;20033;-65
2023/05/31 10:29:28;;;;;;;9.65;3.40;;;29.70;99.90;;;;;;5044713;28;20035;-66
2023/05/31 10:32:00;;;;;;;5.57;2.97;;;29.80;99.90;;;;;;5035724;28;20120;-65
2023/05/31 10:34:26;;;;;;;4.22;3.03;;;28.90;1.00;;;;;;5062668;28;20020;-64
2023/05/31 10:36:53;;;;;;;6.78;3.25;;;28.40;99.90;;;;;;5053569;28;20059;-65
2023/05/31 10:39:44;;;;;;;8.55;3.80;;;28.30;99.90;;;;;;5064568;28;20467;-65
2023/05/31 10:42:19;;;;;;;9.32;2.97;;;28.80;99.90;;;;;;5049319;28;20047;-65
2023/05/31 10:45:23;;;;;;;10.68;3.25;;;28.30;99.90;;;;;;5048125;28;20082;-64
2023/05/31 10:48:14;;;;;;;10.27;3.42;;;27.60;99.90;;;;;;5054286;28;20158;-66
2023/05/31 10:50:57;;;;;;;5.20;2.90;;;27.00;99.90;;;;;;5045669;28;20049;-67
2023/05/31 10:53:29;;;;;;;8.82;3.53;;;27.00;99.90;;;;;;5051933;28;20045;-65
2023/05/31 10:56:02;;;;;;;8.45;3.97;;;27.00;99.90;;;;;;5050023;28;20409;-67
2023/05/31 10:58:51;;;;;;;6.90;3.50;;;26.70;99.90;;;;;;5045291;28;20021;-65
2023/05/31 11:01:20;;;;;;;7.88;3.33;;;26.40;1.00;;;;;;5030722;28;21086;-66
2023/05/31 11:03:50;;;;;;;7.10;3.50;;;26.50;99.90;;;;;;5051934;28;20037;-65
2023/05/31 11:06:17;;;;;;;10.77;4.13;;;26.30;99.90;;;;;;5043758;28;20051;-65
2023/05/31 11:09:11;;;;;;;11.35;3.42;;;26.50;99.90;;;;;;5028129;28;20438;-66
2023/05/31 11:19:32;;;;;;;7.38;3.70;;;26.20;99.90;;;;;;5083803;27;20336;-66
2023/05/31 11:22:14;;;;;;;8.38;4.05;;;26.00;99.90;;;;;;5085562;28;20031;-66
2023/05/31 11:27:36;;;;;;;5.15;3.15;;;26.50;99.90;;;;;;5098749;27;20396;-66
2023/05/31 11:30:04;;;;;;;7.65;2.90;;;25.90;99.90;;;;;;5076595;28;20031;-69
2023/05/31 11:35:16;;;;;;;7.45;3.55;;;26.00;99.90;;;;;;5078575;28;20446;-66
2023/05/31 11:37:43;;;;;;;4.88;3.33;;;26.60;99.90;;;;;;5057039;28;20103;-66
2023/05/31 11:40:12;;;;;;;12.35;3.78;;;26.80;99.90;;;;;;5065268;28;20039;-66
2023/05/31 11:42:40;;;;;;;7.47;3.50;;;26.30;99.90;;;;;;5068185;28;20056;-66
2023/05/31 11:45:11;;;;;;;7.72;3.70;;;26.60;99.90;;;;;;5051230;28;20055;-63
2023/05/31 11:48:09;;;;;;;6.70;3.20;;;26.90;99.90;;;;;;5062350;28;20025;-64
2023/05/31 11:50:35;;;;;;;5.68;3.55;;;27.00;99.90;;;;;;5075497;28;20029;-64
2023/05/31 11:53:02;;;;;;;7.72;3.75;;;27.10;99.90;;;;;;5073419;28;20021;-65
2023/05/31 11:55:32;;;;;;;10.73;3.63;;;26.40;99.90;;;;;;5067643;28;20025;-64
2023/05/31 11:57:58;;;;;;;8.50;3.67;;;26.20;99.90;;;;;;5072854;28;20444;-65
2023/05/31 12:00:31;;;;;;;6.38;3.20;;;26.30;99.90;;;;;;5089938;28;20474;-67
2023/05/31 12:02:57;;;;;;;10.57;3.92;;;26.00;1.00;;;;;;5059787;28;20064;-65
2023/05/31 12:05:23;;;;;;;6.70;3.42;;;26.00;99.90;;;;;;5067596;28;20033;-64
2023/05/31 12:07:53;;;;;;;6.65;3.03;;;25.90;99.90;;;;;;5063457;28;20556;-65
2023/05/31 12:10:19;;;;;;;7.90;2.90;;;26.20;99.90;;;;;;5061119;28;20091;-64
2023/05/31 12:12:47;;;;;;;8.93;3.45;;;26.20;99.90;;;;;;5065457;28;20037;-65
2023/05/31 12:15:14;;;;;;;6.90;2.90;;;26.20;99.90;;;;;;5062032;28;20441;-65
2023/05/31 12:17:40;;;;;;;7.07;3.10;;;26.10;99.90;;;;;;5055903;28;20466;-65
2023/05/31 12:20:06;;;;;;;8.50;3.08;;;26.00;99.90;;;;;;5087487;28;20074;-65
2023/05/31 12:22:31;;;;;;;7.78;2.85;;;25.70;99.90;;;;;;5069056;28;20474;-65
2023/05/31 12:24:57;;;;;;;8.02;2.90;;;26.00;99.90;;;;;;5066967;28;20435;-65
2023/05/31 12:27:24;;;;;;;5.38;2.75;;;25.90;99.90;;;;;;5056945;28;20044;-65
2023/05/31 12:29:56;;;;;;;8.05;2.90;;;25.90;99.90;;;;;;5068797;28;20126;-65
2023/05/31 12:32:26;;;;;;;5.43;2.80;;;26.00;99.90;;;;;;5063835;28;20044;-65
2023/05/31 12:34:52;;;;;;;9.00;2.92;;;25.80;1.00;;;;;;5060043;28;20128;-65
2023/05/31 12:37:18;;;;;;;8.05;3.00;;;25.50;1.00;;;;;;5064588;28;20126;-67
2023/05/31 12:39:45;;;;;;;7.63;2.83;;;25.10;1.00;;;;;;5055478;28;20376;-65
2023/05/31 12:42:11;;;;;;;4.88;2.78;;;25.10;99.90;;;;;;5060711;28;20040;-65
2023/05/31 12:44:38;;;;;;;5.38;2.92;;;25.10;99.90;;;;;;5065873;28;20029;-65
2023/05/31 12:47:07;;;;;;;5.93;2.78;;;25.50;99.90;;;;;;5048308;28;20411;-66
2023/05/31 12:49:34;;;;;;;6.32;2.95;;;25.60;99.90;;;;;;5075639;28;20032;-66
2023/05/31 12:52:09;;;;;;;10.38;3.00;;;26.10;99.90;;;;;;5051421;28;20459;-68